Time;durP1;ratioP1;P1;durP2;ratioP2;P2;SDS_P1;SDS_P2;PMS_P1;PMS_P2;Temp;Humidity;BMP_temperature;BMP_pressure;BME280_temperature;BME280_humidity;BME280_pressure;Samples;Min_cycle;Max_cycle;Signal;HPM_P1;HPM_P2
2022/06/22 00:02:27;;;;;;;;;;;;;;;17.61;62.42;99082.27;1779659;81;20213;-55
2022/06/22 00:05:37;;;;;;;;;;;;;;;17.55;62.48;99074.13;1772468;81;20218;-55
2022/06/22 00:08:46;;;;;;;;;;;;;;;17.46;62.46;99069.55;1771297;81;20166;-56
2022/06/22 00:11:51;;;;;;;;;;;;;;;17.39;62.56;99073.55;1770983;81;20194;-55
2022/06/22 00:14:58;;;;;;;;;;;;;;;17.31;62.57;99069.81;1771305;80;20206;-55
2022/06/22 00:18:02;;;;;;;;;;;;;;;17.23;62.60;99059.16;1771218;81;20594;-55
2022/06/22 00:21:11;;;;;;;;;;;;;;;17.18;62.71;99065.45;1773798;77;20263;-55
2022/06/22 00:24:33;;;;;;;;;;;;;;;17.13;62.79;99061.75;1775810;81;20200;-55
2022/06/22 00:27:41;;;;;;;;;;;;;;;17.08;62.83;99071.33;1775282;81;20188;-55
2022/06/22 00:30:49;;;;;;;;;;;;;;;17.03;62.81;99067.12;1751749;82;20201;-55
2022/06/22 00:34:19;;;;;;;;;;;;;;;16.96;62.81;99056.75;1772008;81;20183;-56
2022/06/22 00:37:27;;;;;;;;;;;;;;;16.86;62.77;99057.40;1775593;81;20235;-55
2022/06/22 00:40:30;;;;;;;;;;;;;;;16.72;62.76;99065.70;1775434;81;20548;-54
2022/06/22 00:43:37;;;;;;;;;;;;;;;16.61;62.73;99067.97;1774583;81;20220;-54
2022/06/22 00:46:44;;;;;;;;;;;;;;;16.49;62.76;99066.34;1775360;81;20268;-56
2022/06/22 00:49:51;;;;;;;;;;;;;;;16.41;62.90;99076.65;1775536;81;20215;-55
2022/06/22 00:52:59;;;;;;;;;;;;;;;16.32;62.95;99067.08;1775280;80;20184;-55
2022/06/22 00:56:00;;;;;;;;;;;;;;;16.26;63.06;99065.30;1775489;81;20196;-55
2022/06/22 00:59:27;;;;;;;;;;;;;;;16.17;63.11;99060.41;1775593;80;20180;-56
2022/06/22 01:02:45;;;;;;;;;;;;;;;16.12;63.24;99058.91;1775528;81;20528;-55
2022/06/22 01:05:55;;;;;;;;;;;;;;;16.08;63.34;99051.66;1775626;81;20260;-55
2022/06/22 01:09:25;;;;;;;;;;;;;;;16.02;63.30;99058.16;1775792;81;20588;-54
2022/06/22 01:12:31;;;;;;;;;;;;;;;15.96;63.40;99059.12;1775543;81;20224;-56
2022/06/22 01:15:57;;;;;;;;;;;;;;;15.91;63.43;99058.16;1775586;81;20192;-54
2022/06/22 01:19:31;;;;;;;;;;;;;;;15.85;63.47;99059.98;1775593;81;20283;-55
2022/06/22 01:22:58;;;;;;;;;;;;;;;15.78;63.40;99055.13;1762297;81;20180;-56
2022/06/22 01:26:06;;;;;;;;;;;;;;;15.69;63.47;99044.16;1765221;81;20236;-55
2022/06/22 01:29:29;;;;;;;;;;;;;;;15.61;63.45;99056.09;1761346;81;20192;-55
2022/06/22 01:32:41;;;;;;;;;;;;;;;15.53;63.51;99064.72;1760724;81;20532;-56
2022/06/22 01:35:46;;;;;;;;;;;;;;;15.47;63.53;99066.54;1755878;80;20232;-55
2022/06/22 01:38:50;;;;;;;;;;;;;;;15.41;63.58;99066.13;1724347;83;20198;-55
2022/06/22 01:42:01;;;;;;;;;;;;;;;15.37;63.67;99070.38;1724614;83;20184;-54
2022/06/22 01:45:09;;;;;;;;;;;;;;;15.31;63.63;99065.83;1724453;82;20222;-54
2022/06/22 01:48:23;;;;;;;;;;;;;;;15.23;63.56;99063.42;1709175;83;20234;-55
2022/06/22 01:51:33;;;;;;;;;;;;;;;15.17;63.62;99063.00;1724234;83;20543;-55
2022/06/22 01:54:58;;;;;;;;;;;;;;;15.13;63.77;99053.50;1724223;83;20203;-55
2022/06/22 01:58:17;;;;;;;;;;;;;;;15.11;63.79;99059.78;1724685;82;20491;-55
2022/06/22 02:01:44;;;;;;;;;;;;;;;15.09;63.86;99050.09;1724071;83;20186;-55
2022/06/22 02:05:07;;;;;;;;;;;;;;;15.09;63.92;99056.45;1724088;83;20250;-54
2022/06/22 02:08:28;;;;;;;;;;;;;;;15.09;63.97;99051.47;1704518;83;20545;-55
2022/06/22 02:11:33;;;;;;;;;;;;;;;15.09;63.97;99056.45;1760910;81;20228;-55
2022/06/22 02:14:38;;;;;;;;;;;;;;;15.07;63.85;99057.75;1760684;81;20560;-54
2022/06/22 02:17:44;;;;;;;;;;;;;;;15.05;63.87;99052.47;1760677;81;20215;-55
2022/06/22 02:20:49;;;;;;;;;;;;;;;15.03;63.81;99049.14;1789035;79;20264;-55
2022/06/22 02:23:57;;;;;;;;;;;;;;;15.02;63.78;99044.68;1767084;79;20182;-54
2022/06/22 02:27:14;;;;;;;;;;;;;;;15.03;63.85;99045.53;1771298;81;20269;-55
2022/06/22 02:30:19;;;;;;;;;;;;;;;15.04;63.99;99041.16;1760651;81;20517;-55
2022/06/22 02:33:22;;;;;;;;;;;;;;;15.06;64.11;99045.91;1771147;81;20546;-54
2022/06/22 02:36:30;;;;;;;;;;;;;;;15.11;64.24;99042.43;1771234;81;20277;-54
2022/06/22 02:39:36;;;;;;;;;;;;;;;15.16;64.25;99037.87;1771143;81;20261;-56
2022/06/22 02:46:03;;;;;;;;;;;;;;;15.21;64.18;99054.53;1771143;81;20242;-55
2022/06/22 02:49:13;;;;;;;;;;;;;;;15.25;64.14;99056.28;1771182;81;20186;-55
2022/06/22 02:52:18;;;;;;;;;;;;;;;15.27;64.06;99057.72;1771167;81;20201;-55
2022/06/22 02:55:25;;;;;;;;;;;;;;;15.28;63.98;99059.94;1771051;81;20190;-55
2022/06/22 02:58:33;;;;;;;;;;;;;;;15.28;63.97;99058.56;1758395;81;20210;-55
2022/06/22 03:01:39;;;;;;;;;;;;;;;15.29;63.94;99048.67;1771220;81;20538;-55
2022/06/22 03:04:45;;;;;;;;;;;;;;;15.33;63.98;99046.29;1760866;81;20234;-55
2022/06/22 03:07:54;;;;;;;;;;;;;;;15.36;64.00;99049.41;1770903;80;20233;-54
2022/06/22 03:11:07;;;;;;;;;;;;;;;15.39;63.93;99043.98;1766877;81;20194;-55
2022/06/22 03:14:28;;;;;;;;;;;;;;;15.42;63.92;99036.61;1738951;81;20564;-55
2022/06/22 03:17:40;;;;;;;;;;;;;;;15.47;63.91;99038.95;1729580;81;20239;-55
2022/06/22 03:20:47;;;;;;;;;;;;;;;15.49;63.83;99040.91;1725558;83;20197;-54
2022/06/22 03:23:59;;;;;;;;;;;;;;;15.48;63.78;99039.25;1724291;82;20582;-55
2022/06/22 03:27:06;;;;;;;;;;;;;;;15.49;63.82;99034.02;1717678;83;20294;-54
2022/06/22 03:30:13;;;;;;;;;;;;;;;15.50;63.79;99028.82;1717715;83;20578;-54
2022/06/22 03:33:18;;;;;;;;;;;;;;;15.52;63.78;99039.61;1666984;86;20243;-55
2022/06/22 03:36:25;;;;;;;;;;;;;;;15.53;63.76;99036.61;1674517;86;20222;-55
2022/06/22 03:39:33;;;;;;;;;;;;;;;15.57;63.81;99028.14;1674610;86;20548;-54
2022/06/22 03:42:46;;;;;;;;;;;;;;;15.63;63.87;99031.34;1703273;83;20193;-55
2022/06/22 03:45:55;;;;;;;;;;;;;;;15.72;63.84;99034.55;1717717;83;20560;-54
2022/06/22 03:49:10;;;;;;;;;;;;;;;15.77;63.81;99030.53;1717874;83;20192;-54
2022/06/22 03:52:36;;;;;;;;;;;;;;;15.79;63.73;99038.85;1719144;83;20204;-54
2022/06/22 03:55:43;;;;;;;;;;;;;;;15.82;63.68;99034.26;1661567;86;20246;-55
2022/06/22 03:58:51;;;;;;;;;;;;;;;15.85;63.64;99031.01;1714569;83;20196;-53
2022/06/22 04:01:56;;;;;;;;;;;;;;;15.89;63.60;99037.71;1717796;83;20275;-54
2022/06/22 04:05:02;;;;;;;;;;;;;;;15.90;63.49;99036.61;1717715;83;20204;-54
2022/06/22 04:08:07;;;;;;;;;;;;;;;15.91;63.48;99035.55;1700509;83;20220;-54
2022/06/22 04:11:33;;;;;;;;;;;;;;;15.97;63.58;99035.95;1717643;82;20204;-54
2022/06/22 04:14:50;;;;;;;;;;;;;;;16.04;63.53;99044.11;1698994;83;20626;-55
2022/06/22 04:18:02;;;;;;;;;;;;;;;16.08;63.51;99046.13;1728171;83;20615;-54
2022/06/22 04:21:13;;;;;;;;;;;;;;;16.12;63.46;99044.58;1720453;82;20605;-54
2022/06/22 04:24:22;;;;;;;;;;;;;;;16.13;63.37;99049.54;1712975;83;20255;-54
2022/06/22 04:27:33;;;;;;;;;;;;;;;16.13;63.38;99050.38;1699717;83;20216;-57
2022/06/22 04:30:45;;;;;;;;;;;;;;;16.20;63.50;99044.20;1717640;83;20197;-54
2022/06/22 04:33:53;;;;;;;;;;;;;;;16.31;63.54;99046.08;1717612;83;20564;-55
2022/06/22 04:36:59;;;;;;;;;;;;;;;16.37;63.50;99046.48;1717804;83;20204;-55
2022/06/22 04:40:07;;;;;;;;;;;;;;;16.42;63.43;99045.20;1717340;83;20188;-54
2022/06/22 04:43:13;;;;;;;;;;;;;;;16.49;63.37;99040.10;1717750;83;20232;-54
2022/06/22 04:46:21;;;;;;;;;;;;;;;16.53;63.35;99043.50;1717245;83;20600;-54
2022/06/22 04:49:31;;;;;;;;;;;;;;;16.59;63.34;99045.80;1717730;83;20264;-54
2022/06/22 04:52:43;;;;;;;;;;;;;;;16.64;63.34;99041.23;1690275;83;20215;-54
2022/06/22 04:55:47;;;;;;;;;;;;;;;16.69;63.21;99046.01;1680543;85;20222;-55
2022/06/22 04:58:53;;;;;;;;;;;;;;;16.73;63.21;99049.41;1674567;85;20223;-54
2022/06/22 05:02:03;;;;;;;;;;;;;;;16.79;63.23;99042.88;1716278;83;20620;-53
2022/06/22 05:05:11;;;;;;;;;;;;;;;16.86;63.23;99041.34;1717275;83;20220;-54
2022/06/22 05:08:32;;;;;;;;;;;;;;;16.92;63.19;99032.90;1717322;83;20228;-55
2022/06/22 05:11:40;;;;;;;;;;;;;;;16.99;63.15;99028.06;1742638;80;20231;-56
2022/06/22 05:14:47;;;;;;;;;;;;;;;17.07;63.13;99024.04;1760359;80;20204;-56
2022/06/22 05:17:55;;;;;;;;;;;;;;;17.16;63.08;99016.99;1750927;80;20644;-56
2022/06/22 05:21:19;;;;;;;;;;;;;;;17.17;62.91;99024.22;1759054;80;20199;-58
2022/06/22 05:24:27;;;;;;;;;;;;;;;17.19;62.80;99020.64;1747986;82;20193;-57
2022/06/22 05:27:42;;;;;;;;;;;;;;;17.22;62.73;99013.25;1748098;77;20505;-58
2022/06/22 05:30:52;;;;;;;;;;;;;;;17.27;62.68;99016.07;1743498;82;20245;-58
2022/06/22 05:33:56;;;;;;;;;;;;;;;17.27;62.46;99010.00;1771074;80;20265;-58
2022/06/22 05:37:15;;;;;;;;;;;;;;;17.29;62.47;99002.83;1765358;80;20248;-57
2022/06/22 05:40:22;;;;;;;;;;;;;;;17.35;62.47;99006.81;1724781;83;20595;-57
2022/06/22 05:43:30;;;;;;;;;;;;;;;17.41;62.33;99004.98;1776114;80;20190;-58
2022/06/22 05:46:35;;;;;;;;;;;;;;;17.50;62.29;99002.09;1725726;82;20250;-58
2022/06/22 05:49:45;;;;;;;;;;;;;;;17.57;62.25;99005.51;1727121;80;20202;-58
2022/06/22 05:53:03;;;;;;;;;;;;;;;17.65;62.20;99001.77;1725000;82;20207;-58
2022/06/22 05:56:15;;;;;;;;;;;;;;;17.75;62.09;98996.92;1711153;80;20214;-59
2022/06/22 05:59:25;;;;;;;;;;;;;;;17.80;61.90;98998.39;1769591;81;20279;-58
2022/06/22 06:02:48;;;;;;;;;;;;;;;17.85;61.80;98993.73;1743615;82;20220;-59
2022/06/22 06:05:57;;;;;;;;;;;;;;;17.94;61.67;98999.68;1747755;80;20204;-59
2022/06/22 06:09:08;;;;;;;;;;;;;;;18.04;61.54;98994.28;1751920;79;20581;-58
2022/06/22 06:12:19;;;;;;;;;;;;;;;18.12;61.44;98997.98;1739017;80;20240;-59
2022/06/22 06:15:24;;;;;;;;;;;;;;;18.20;61.25;98994.77;1741027;81;20854;-59
2022/06/22 06:18:30;;;;;;;;;;;;;;;18.30;61.12;98994.87;1756803;79;20215;-59
2022/06/22 06:21:41;;;;;;;;;;;;;;;18.46;61.04;98996.75;1759365;79;20198;-59
2022/06/22 06:28:14;;;;;;;;;;;;;;;18.74;60.75;98994.28;1760985;79;20190;-58
2022/06/22 06:31:44;;;;;;;;;;;;;;;18.88;60.57;98991.38;1758907;80;20293;-58
2022/06/22 06:34:56;;;;;;;;;;;;;;;18.91;60.32;98986.68;1748897;80;20258;-59
2022/06/22 06:38:04;;;;;;;;;;;;;;;18.87;60.10;98998.00;1733336;80;20210;-59
2022/06/22 06:41:15;;;;;;;;;;;;;;;18.87;60.01;98984.98;1737845;80;20210;-58
2022/06/22 06:44:25;;;;;;;;;;;;;;;18.96;59.97;98989.50;1746131;82;20672;-59
2022/06/22 06:47:39;;;;;;;;;;;;;;;19.04;59.75;98991.23;1746215;82;20557;-58
2022/06/22 06:50:51;;;;;;;;;;;;;;;19.15;59.75;98984.66;1746839;82;20189;-59
2022/06/22 06:54:09;;;;;;;;;;;;;;;19.34;59.66;98972.08;1747807;82;20554;-59
2022/06/22 06:57:22;;;;;;;;;;;;;;;19.55;59.42;98973.63;1723989;80;20265;-58
2022/06/22 07:00:27;;;;;;;;;;;;;;;19.77;59.24;98974.31;1747904;80;20206;-59
2022/06/22 07:03:35;;;;;;;;;;;;;;;19.99;59.02;98970.81;1716787;83;20268;-57
2022/06/22 07:06:38;;;;;;;;;;;;;;;20.17;58.78;98966.22;1738243;82;20609;-56
2022/06/22 07:09:47;;;;;;;;;;;;;;;20.29;58.52;98970.97;1736865;81;20217;-61
2022/06/22 07:12:53;;;;;;;;;;;;;;;20.38;58.33;98973.49;1731023;80;20568;-58
2022/06/22 07:16:00;;;;;;;;;;;;;;;20.46;58.08;98967.40;1730444;81;20199;-58
2022/06/22 07:19:15;;;;;;;;;;;;;;;20.54;57.90;98964.94;1728307;80;20224;-59
2022/06/22 07:22:27;;;;;;;;;;;;;;;20.57;57.59;98963.53;1758810;80;20601;-58
2022/06/22 07:25:52;;;;;;;;;;;;;;;20.62;57.45;98960.77;1743014;80;20214;-58
2022/06/22 07:29:03;;;;;;;;;;;;;;;20.70;57.25;98965.80;1753045;78;20566;-61
2022/06/22 07:32:12;;;;;;;;;;;;;;;20.71;57.20;98958.56;1715777;82;20571;-59
2022/06/22 07:35:28;;;;;;;;;;;;;;;20.72;56.89;98975.52;1741177;80;20204;-59
2022/06/22 07:38:52;;;;;;;;;;;;;;;20.74;56.79;98966.89;1750119;81;20202;-59
2022/06/22 07:41:59;;;;;;;;;;;;;;;20.76;56.63;98956.34;1742716;80;20206;-58
2022/06/22 07:45:05;;;;;;;;;;;;;;;20.80;56.45;98965.81;1755112;80;20519;-58
2022/06/22 07:48:17;;;;;;;;;;;;;;;20.89;56.42;98971.10;1750794;80;20238;-60
2022/06/22 07:51:28;;;;;;;;;;;;;;;21.08;56.38;98980.61;1750658;80;20218;-59
2022/06/22 07:54:52;;;;;;;;;;;;;;;21.23;55.96;98981.17;1724195;82;20560;-58
2022/06/22 07:58:18;;;;;;;;;;;;;;;21.19;55.78;98985.61;1724747;82;20218;-59
2022/06/22 08:01:29;;;;;;;;;;;;;;;21.23;55.75;98982.56;1735384;80;20200;-59
2022/06/22 08:04:38;;;;;;;;;;;;;;;21.37;55.62;98983.67;1665031;84;20221;-60
2022/06/22 08:07:55;;;;;;;;;;;;;;;21.37;55.40;98990.62;1700432;82;20218;-60
2022/06/22 08:11:24;;;;;;;;;;;;;;;21.21;55.02;98983.39;1689820;83;20667;-59
2022/06/22 08:14:55;;;;;;;;;;;;;;;21.10;54.93;98990.07;1702857;83;20217;-59
2022/06/22 08:17:59;;;;;;;;;;;;;;;20.91;54.88;98986.13;1765742;80;20207;-57
2022/06/22 08:21:04;;;;;;;;;;;;;;;20.77;54.94;98994.19;1747466;81;20213;-58
2022/06/22 08:24:10;;;;;;;;;;;;;;;20.58;54.96;98998.59;1742215;82;20209;-59
2022/06/22 08:27:20;;;;;;;;;;;;;;;20.45;55.07;99001.34;1733516;80;20221;-58
2022/06/22 08:30:27;;;;;;;;;;;;;;;20.32;55.13;99004.62;1723664;80;20216;-58
2022/06/22 08:33:42;;;;;;;;;;;;;;;20.18;54.93;99005.39;1782865;80;20578;-58
2022/06/22 08:36:58;;;;;;;;;;;;;;;20.01;54.98;99014.45;1724632;83;20219;-60
2022/06/22 08:40:05;;;;;;;;;;;;;;;20.04;55.17;99016.68;1738083;80;20549;-59
2022/06/22 08:43:22;;;;;;;;;;;;;;;20.21;55.22;99010.40;1755732;80;20466;-58
2022/06/22 08:46:36;;;;;;;;;;;;;;;20.44;55.20;99004.36;1781429;80;20198;-58
2022/06/22 08:50:00;;;;;;;;;;;;;;;20.64;55.04;99014.17;1732683;81;20204;-59
2022/06/22 08:53:35;;;;;;;;;;;;;;;20.76;54.81;99010.03;1748986;80;20257;-59
2022/06/22 08:56:56;;;;;;;;;;;;;;;20.82;54.48;99005.30;1737712;80;20211;-58
2022/06/22 09:00:09;;;;;;;;;;;;;;;20.75;54.29;99013.09;1733570;81;20241;-56
2022/06/22 09:03:25;;;;;;;;;;;;;;;20.66;54.19;99020.30;1753740;82;20245;-54
2022/06/22 09:06:41;;;;;;;;;;;;;;;20.51;54.15;99018.86;1752184;80;20199;-55
2022/06/22 09:09:57;;;;;;;;;;;;;;;20.33;54.20;99021.56;1780919;80;20191;-54
2022/06/22 09:13:10;;;;;;;;;;;;;;;20.23;54.25;99019.31;1772276;80;20254;-54
2022/06/22 09:16:46;;;;;;;;;;;;;;;20.19;54.33;99021.79;1781665;80;20211;-55
2022/06/22 09:20:12;;;;;;;;;;;;;;;20.22;54.42;99021.24;1763850;81;20204;-54
2022/06/22 09:23:26;;;;;;;;;;;;;;;20.34;54.41;99015.47;1762881;80;20663;-54
2022/06/22 09:26:35;;;;;;;;;;;;;;;20.39;54.31;99011.32;1761643;80;20177;-54
2022/06/22 09:29:53;;;;;;;;;;;;;;;20.40;54.28;99012.44;1721909;82;20477;-56
2022/06/22 09:33:26;;;;;;;;;;;;;;;20.40;54.08;99015.22;1701805;84;20204;-55
2022/06/22 09:36:51;;;;;;;;;;;;;;;20.42;54.04;99019.11;1715931;83;20572;-55
2022/06/22 09:40:13;;;;;;;;;;;;;;;20.47;54.08;99019.13;1752516;82;20254;-54
2022/06/22 09:43:50;;;;;;;;;;;;;;;20.57;54.17;99019.14;1692189;82;20215;-55
2022/06/22 09:47:21;;;;;;;;;;;;;;;20.77;54.21;99019.22;1687192;85;20603;-55
2022/06/22 09:50:31;;;;;;;;;;;;;;;20.86;53.96;99016.17;1743966;80;20549;-55
2022/06/22 09:53:48;;;;;;;;;;;;;;;20.86;53.80;99024.52;1715986;81;20193;-55
2022/06/22 09:57:02;;;;;;;;;;;;;;;20.90;53.71;99024.80;1695074;83;20211;-55
2022/06/22 10:00:26;;;;;;;;;;;;;;;20.93;53.70;99017.30;1681387;83;20251;-55
2022/06/22 10:03:48;;;;;;;;;;;;;;;21.09;53.78;99018.45;1674299;85;20213;-56
2022/06/22 10:07:20;;;;;;;;;;;;;;;21.19;53.68;99023.19;1668477;83;20605;-55
2022/06/22 10:10:41;;;;;;;;;;;;;;;21.28;53.54;99021.55;1685999;85;20223;-54
2022/06/22 10:13:58;;;;;;;;;;;;;;;21.30;53.30;99020.14;1670367;83;20220;-52
2022/06/22 10:17:22;;;;;;;;;;;;;;;21.27;53.10;99015.13;1684937;83;20254;-52
2022/06/22 10:20:36;;;;;;;;;;;;;;;21.20;53.07;99017.92;1695172;83;20600;-54
2022/06/22 10:24:05;;;;;;;;;;;;;;;21.23;53.10;99014.00;1685865;83;20608;-52
2022/06/22 10:27:22;;;;;;;;;;;;;;;21.26;53.00;99017.64;1673730;83;20207;-53
2022/06/22 10:30:30;;;;;;;;;;;;;;;21.23;52.99;99009.82;1728753;79;20218;-53
2022/06/22 10:34:06;;;;;;;;;;;;;;;21.29;52.88;99013.45;1740465;82;20206;-52
2022/06/22 10:37:30;;;;;;;;;;;;;;;21.28;52.77;99014.00;1728740;82;20281;-53
2022/06/22 10:45:11;;;;;;;;;;;;;;;21.33;52.66;99020.97;1744315;82;20480;-53
2022/06/22 10:48:38;;;;;;;;;;;;;;;21.43;52.43;99014.56;1743156;82;20221;-54
2022/06/22 10:51:54;;;;;;;;;;;;;;;21.49;52.41;99014.28;1743765;82;20589;-54
2022/06/22 10:55:19;;;;;;;;;;;;;;;21.59;52.41;99012.89;1744157;80;20249;-55
2022/06/22 10:58:48;;;;;;;;;;;;;;;21.65;52.32;99017.88;1735857;83;20218;-55
2022/06/22 11:02:21;;;;;;;;;;;;;;;21.59;52.03;99020.41;1714138;83;20263;-54
2022/06/22 11:05:33;;;;;;;;;;;;;;;21.46;51.83;99014.84;1713796;84;20216;-55
2022/06/22 11:09:00;;;;;;;;;;;;;;;21.26;51.82;99009.30;1740154;82;20285;-54
2022/06/22 11:12:29;;;;;;;;;;;;;;;21.14;51.85;99027.35;1701021;84;20244;-54
2022/06/22 11:15:52;;;;;;;;;;;;;;;21.14;52.04;99024.02;1724360;82;20320;-53
2022/06/22 11:19:03;;;;;;;;;;;;;;;21.10;51.95;99029.03;1707384;81;20276;-54
2022/06/22 11:22:24;;;;;;;;;;;;;;;20.95;51.82;99028.99;1676874;84;20194;-55
2022/06/22 11:33:16;;;;;;;;;;;;;;;20.72;51.87;99041.45;1737972;82;20198;-54
2022/06/22 11:36:48;;;;;;;;;;;;;;;20.57;51.91;99036.67;1726377;81;20219;-56
2022/06/22 11:40:11;;;;;;;;;;;;;;;20.47;51.94;99056.09;1751321;80;20212;-53
2022/06/22 11:43:32;;;;;;;;;;;;;;;20.33;51.92;99045.73;1760751;80;20304;-54
2022/06/22 11:46:42;;;;;;;;;;;;;;;20.17;52.01;99035.69;1688751;83;20575;-54
2022/06/22 11:49:55;;;;;;;;;;;;;;;19.93;52.17;99039.38;1686658;84;20213;-54
2022/06/22 11:53:09;;;;;;;;;;;;;;;19.74;52.35;99056.20;1724383;83;20250;-53
2022/06/22 11:56:36;;;;;;;;;;;;;;;19.61;52.44;99058.08;1709801;81;20223;-56
2022/06/22 11:59:53;;;;;;;;;;;;;;;19.48;52.55;99054.89;1733845;82;20221;-54
2022/06/22 12:03:12;;;;;;;;;;;;;;;19.40;52.78;99059.55;1716427;81;20209;-55
2022/06/22 12:06:36;;;;;;;;;;;;;;;19.38;52.92;99060.38;1725168;82;20214;-55
2022/06/22 12:10:12;;;;;;;;;;;;;;;19.36;52.93;99061.19;1769869;80;20625;-55
2022/06/22 12:13:25;;;;;;;;;;;;;;;19.37;52.94;99051.75;1759304;80;20256;-55
2022/06/22 12:16:47;;;;;;;;;;;;;;;19.46;53.04;99059.87;1724818;83;20570;-54
2022/06/22 12:20:20;;;;;;;;;;;;;;;19.50;52.93;99052.70;1734832;81;20228;-54
2022/06/22 12:23:49;;;;;;;;;;;;;;;19.49;52.84;99048.27;1737820;80;20620;-54
2022/06/22 12:27:29;;;;;;;;;;;;;;;19.47;52.90;99050.45;1737721;81;20212;-54
2022/06/22 12:31:01;;;;;;;;;;;;;;;19.33;52.79;99047.84;1742474;81;20237;-53
2022/06/22 12:34:25;;;;;;;;;;;;;;;19.33;53.14;99043.11;1729775;80;20214;-52
2022/06/22 12:37:30;;;;;;;;;;;;;;;19.37;53.33;99055.91;1726731;81;20498;-53
2022/06/22 12:40:54;;;;;;;;;;;;;;;19.38;53.35;99057.61;1736246;81;20599;-53
2022/06/22 12:44:16;;;;;;;;;;;;;;;19.31;53.25;99060.60;1739860;80;20216;-54
2022/06/22 12:47:26;;;;;;;;;;;;;;;19.20;53.22;99061.01;1749223;82;20285;-54
2022/06/22 12:50:50;;;;;;;;;;;;;;;19.17;53.31;99067.09;1729420;82;20428;-53
2022/06/22 12:54:18;;;;;;;;;;;;;;;19.17;53.38;99069.05;1731382;80;20625;-54
2022/06/22 12:57:25;;;;;;;;;;;;;;;19.11;53.53;99068.14;1712274;80;20203;-55
2022/06/22 13:00:30;;;;;;;;;;;;;;;19.06;53.69;99061.16;1705288;83;20219;-54
2022/06/22 13:03:48;;;;;;;;;;;;;;;19.02;53.76;99063.33;1684160;84;20210;-54
2022/06/22 13:07:06;;;;;;;;;;;;;;;18.98;53.87;99059.42;1710809;80;20209;-53
2022/06/22 13:10:12;;;;;;;;;;;;;;;18.97;53.94;99060.50;1755157;81;20204;-53
2022/06/22 13:13:31;;;;;;;;;;;;;;;18.95;53.97;99060.77;1758602;81;20204;-54
2022/06/22 13:16:44;;;;;;;;;;;;;;;18.94;54.00;99059.11;1754509;81;20240;-54
2022/06/22 13:20:19;;;;;;;;;;;;;;;18.90;54.07;99059.33;1734842;80;20202;-54
2022/06/22 13:23:47;;;;;;;;;;;;;;;18.96;54.17;99062.43;1718174;83;20222;-55
2022/06/22 13:27:06;;;;;;;;;;;;;;;19.02;54.00;99061.41;1725957;83;20262;-57
2022/06/22 13:30:19;;;;;;;;;;;;;;;19.05;53.90;99055.33;1702361;81;20284;-56
2022/06/22 13:33:35;;;;;;;;;;;;;;;19.17;53.98;99051.83;1732944;80;20197;-55
2022/06/22 13:36:52;;;;;;;;;;;;;;;19.27;53.98;99054.70;1705501;84;20226;-57
2022/06/22 13:40:05;;;;;;;;;;;;;;;19.43;54.03;99050.69;1732455;82;20209;-56
2022/06/22 13:43:21;;;;;;;;;;;;;;;19.68;53.98;99057.27;1708704;84;20559;-55
2022/06/22 13:46:37;;;;;;;;;;;;;;;19.94;53.86;99052.19;1746025;82;20548;-55
2022/06/22 13:50:12;;;;;;;;;;;;;;;20.19;53.76;99058.45;1755890;80;20243;-55
2022/06/22 13:53:03;;;;;;;;;;;;;;;20.44;53.56;99053.86;1771964;80;20255;-55
2022/06/22 13:56:29;;;;;;;;;;;;;;;20.51;53.32;99057.23;1775236;81;20524;-56
2022/06/22 13:59:49;;;;;;;;;;;;;;;20.36;53.18;99045.22;1764476;80;20295;-53
2022/06/22 14:03:22;;;;;;;;;;;;;;;20.07;53.42;99053.11;1760421;81;20231;-55
2022/06/22 14:06:38;;;;;;;;;;;;;;;19.80;53.73;99046.83;1761457;81;20557;-55
2022/06/22 14:10:11;;;;;;;;;;;;;;;19.64;54.05;99042.81;1729162;82;20197;-56
2022/06/22 14:13:30;;;;;;;;;;;;;;;19.49;54.09;99044.09;1700424;84;20208;-55
2022/06/22 14:16:52;;;;;;;;;;;;;;;19.44;54.17;99039.31;1708423;84;20500;-56
2022/06/22 14:20:06;;;;;;;;;;;;;;;19.42;54.30;99040.16;1727867;82;20208;-56
2022/06/22 14:23:13;;;;;;;;;;;;;;;19.43;54.33;99033.49;1734965;82;20210;-56
2022/06/22 14:26:38;;;;;;;;;;;;;;;19.44;54.27;99033.77;1745137;80;20541;-56
2022/06/22 14:29:56;;;;;;;;;;;;;;;19.50;54.48;99037.43;1744481;82;20252;-56
2022/06/22 14:33:37;;;;;;;;;;;;;;;19.68;54.63;99039.80;1745643;82;20489;-56
2022/06/22 14:36:48;;;;;;;;;;;;;;;19.89;54.55;99036.03;1713973;81;20877;-55
2022/06/22 14:40:13;;;;;;;;;;;;;;;20.01;54.24;99040.84;1709133;82;20627;-55
2022/06/22 14:43:36;;;;;;;;;;;;;;;19.95;54.15;99039.11;1711854;84;20579;-55
2022/06/22 14:47:16;;;;;;;;;;;;;;;19.95;54.14;99044.12;1711554;84;20200;-55
2022/06/22 14:50:37;;;;;;;;;;;;;;;19.85;54.04;99054.34;1713059;84;20256;-57
2022/06/22 14:53:56;;;;;;;;;;;;;;;19.47;54.04;99050.45;1712784;84;20208;-56
2022/06/22 14:57:09;;;;;;;;;;;;;;;19.17;54.25;99051.83;1713005;84;20572;-56
2022/06/22 15:00:40;;;;;;;;;;;;;;;18.95;54.45;99066.31;1694246;83;20508;-55
2022/06/22 15:04:11;;;;;;;;;;;;;;;18.71;54.63;99059.97;1714478;83;20537;-55
2022/06/22 15:07:31;;;;;;;;;;;;;;;18.47;54.79;99075.20;1714057;84;20564;-56
2022/06/22 15:10:47;;;;;;;;;;;;;;;18.27;54.92;99069.34;1714024;84;20272;-55
2022/06/22 15:14:03;;;;;;;;;;;;;;;18.10;55.19;99076.34;1724733;82;20224;-55
2022/06/22 15:17:48;;;;;;;;;;;;;;;18.04;55.37;99074.59;1667077;86;20255;-54
2022/06/22 15:21:06;;;;;;;;;;;;;;;18.04;55.54;99080.67;1686084;85;20627;-54
2022/06/22 15:24:27;;;;;;;;;;;;;;;17.97;55.60;99081.39;1686157;85;20286;-55
2022/06/22 15:27:35;;;;;;;;;;;;;;;17.88;55.64;99095.70;1707900;82;20228;-55
2022/06/22 15:30:43;;;;;;;;;;;;;;;17.78;55.81;99091.91;1708118;84;20256;-55
2022/06/22 15:33:54;;;;;;;;;;;;;;;17.74;55.86;99099.06;1738269;82;20194;-55
2022/06/22 15:37:28;;;;;;;;;;;;;;;17.67;55.96;99099.77;1718839;80;20214;-54
2022/06/22 15:40:44;;;;;;;;;;;;;;;17.58;56.01;99092.98;1693828;84;20284;-54
2022/06/22 15:43:59;;;;;;;;;;;;;;;17.50;56.15;99090.11;1695080;83;20223;-56
2022/06/22 15:47:29;;;;;;;;;;;;;;;17.48;56.16;99092.81;1681806;85;20203;-55
2022/06/22 15:50:36;;;;;;;;;;;;;;;17.36;56.13;99088.70;1731302;83;20214;-55
2022/06/22 15:53:52;;;;;;;;;;;;;;;17.30;56.29;99109.64;1728692;83;20306;-55
2022/06/22 15:57:23;;;;;;;;;;;;;;;17.23;56.43;99097.35;1729029;81;20543;-55
2022/06/22 16:00:55;;;;;;;;;;;;;;;17.10;56.47;99112.02;1719060;81;20231;-54
2022/06/22 16:04:27;;;;;;;;;;;;;;;16.97;56.65;99102.11;1744663;82;20219;-54
2022/06/22 16:07:48;;;;;;;;;;;;;;;16.90;56.80;99101.44;1706794;83;20225;-55
2022/06/22 16:14:24;;;;;;;;;;;;;;;16.88;57.01;99106.91;1642653;87;20205;-55
2022/06/22 16:17:48;;;;;;;;;;;;;;;16.93;57.16;99115.30;1665083;84;20583;-55
2022/06/22 16:20:56;;;;;;;;;;;;;;;16.95;57.25;99110.37;1650807;86;20218;-54
2022/06/22 16:24:24;;;;;;;;;;;;;;;16.96;57.26;99118.95;1700472;82;20250;-54
2022/06/22 16:27:30;;;;;;;;;;;;;;;16.94;57.27;99121.11;1713508;82;20206;-54
2022/06/22 16:31:12;;;;;;;;;;;;;;;16.91;57.32;99116.93;1715531;82;20665;-54
2022/06/22 16:34:39;;;;;;;;;;;;;;;16.85;57.34;99110.16;1725236;83;20494;-54
2022/06/22 16:37:56;;;;;;;;;;;;;;;16.74;57.36;99106.38;1694879;83;20484;-54
2022/06/22 16:41:07;;;;;;;;;;;;;;;16.71;57.51;99104.11;1678291;85;20223;-54
2022/06/22 16:44:19;;;;;;;;;;;;;;;16.67;57.51;99113.11;1712660;83;20248;-54
2022/06/22 16:47:24;;;;;;;;;;;;;;;16.61;57.54;99113.56;1716065;83;20504;-54
2022/06/22 16:50:45;;;;;;;;;;;;;;;16.58;57.59;99123.73;1716538;83;20216;-54
2022/06/22 16:54:14;;;;;;;;;;;;;;;16.55;57.67;99121.99;1742959;80;20587;-54
2022/06/22 16:57:26;;;;;;;;;;;;;;;16.53;57.71;99120.01;1751989;80;20219;-54
2022/06/22 17:00:32;;;;;;;;;;;;;;;16.48;57.74;99118.52;1772940;80;20216;-54
2022/06/22 17:03:41;;;;;;;;;;;;;;;16.44;57.75;99117.63;1775400;81;20689;-54
2022/06/22 17:06:48;;;;;;;;;;;;;;;16.39;57.76;99116.66;1753388;81;20207;-53
2022/06/22 17:09:42;;;;;;;;;;;;;;;16.35;57.85;99114.08;1735931;79;20817;-54
2022/06/22 17:12:35;;;;;;;;;;;;;;;16.29;57.92;99109.53;1751247;80;20286;-56
2022/06/22 17:15:33;;;;;;;;;;;;;;;16.23;58.01;99119.64;1743154;82;20251;-54
2022/06/22 17:18:45;;;;;;;;;;;;;;;16.17;58.10;99119.77;1742814;82;20554;-54
2022/06/22 17:22:01;;;;;;;;;;;;;;;16.06;58.14;99126.96;1675251;86;20583;-54